createdAt,value
2022-09-13T00:01:42.550Z,99460.97
2022-09-13T00:04:32.283Z,99467.25
2022-09-13T00:07:20.678Z,99455.38
2022-09-13T00:10:09.989Z,99447.81
2022-09-13T00:12:58.397Z,99429.69
2022-09-13T00:15:47.075Z,99420.59
2022-09-13T00:18:35.432Z,99412.50
2022-09-13T00:21:25.388Z,99416.50
2022-09-13T00:24:13.735Z,99418.72
2022-09-13T00:27:02.100Z,99433.72
2022-09-13T00:29:50.618Z,99431.22
2022-09-13T00:32:39.121Z,99426.88
2022-09-13T00:35:27.485Z,99421.44
2022-09-13T00:38:17.216Z,99410.09
2022-09-13T00:41:05.737Z,99416.00
2022-09-13T00:43:56.478Z,99418.59
2022-09-13T00:46:46.553Z,99414.44
2022-09-13T00:49:38.102Z,99419.91
2022-09-13T00:52:27.030Z,99420.09
2022-09-13T00:55:20.328Z,99409.91
2022-09-13T00:58:13.773Z,99415.34
2022-09-13T01:01:02.460Z,99407.88
2022-09-13T01:03:50.823Z,99410.66
2022-09-13T01:06:39.296Z,99407.34
2022-09-13T01:09:27.748Z,99416.09
2022-09-13T01:12:26.348Z,99423.19
2022-09-13T01:15:14.724Z,99419.13
2022-09-13T01:18:03.249Z,99400.34
2022-09-13T01:21:25.164Z,99391.19
2022-09-13T01:24:41.417Z,99392.66
2022-09-13T01:27:45.613Z,99398.34
2022-09-13T01:30:36.055Z,99400.72
2022-09-13T01:33:34.527Z,99402.13
2022-09-13T01:36:40.009Z,99415.88
2022-09-13T01:39:42.588Z,99417.53
2022-09-13T01:42:40.703Z,99409.03
2022-09-13T01:45:37.132Z,99401.56
2022-09-13T01:48:31.093Z,99395.72
2022-09-13T01:51:24.378Z,99408.00
2022-09-13T01:54:18.150Z,99412.50
2022-09-13T01:57:10.759Z,99406.06
2022-09-13T02:00:02.467Z,99403.72
2022-09-13T02:03:06.004Z,99404.97
2022-09-13T02:05:57.342Z,99408.13
2022-09-13T02:08:47.138Z,99391.06
2022-09-13T02:11:35.507Z,99402.97
2022-09-13T02:14:27.938Z,99392.41
2022-09-13T02:17:18.038Z,99400.28
2022-09-13T02:20:11.842Z,99406.31
2022-09-13T02:23:03.159Z,99404.66
2022-09-13T02:25:51.517Z,99423.56
2022-09-13T02:28:42.155Z,99427.09
2022-09-13T02:31:37.640Z,99439.34
2022-09-13T02:34:28.487Z,99453.69
2022-09-13T02:37:18.294Z,99439.31
2022-09-13T02:40:10.367Z,99437.78
2022-09-13T02:43:00.467Z,99452.91
2022-09-13T02:45:51.242Z,99459.91
2022-09-13T02:48:49.134Z,99459.91
2022-09-13T02:51:44.995Z,99464.28
2022-09-13T02:54:38.459Z,99454.09
2022-09-13T02:57:31.255Z,99435.28
2022-09-13T03:00:19.728Z,99448.28
2022-09-13T03:03:10.806Z,99455.34
2022-09-13T03:05:59.434Z,99449.84
2022-09-13T03:08:47.955Z,99432.28
2022-09-13T03:11:50.466Z,99433.44
2022-09-13T03:14:45.911Z,99437.72
2022-09-13T03:17:44.885Z,99429.19
2022-09-13T03:20:39.680Z,99443.13
2022-09-13T03:23:43.179Z,99441.69
2022-09-13T03:26:44.455Z,99428.88
2022-09-13T03:29:36.186Z,99405.94
2022-09-13T03:32:29.792Z,99395.97
2022-09-13T03:35:26.853Z,99387.03
2022-09-13T03:38:17.628Z,99396.59
2022-09-13T03:41:08.625Z,99383.38
2022-09-13T03:43:59.746Z,99373.47
2022-09-13T03:46:49.709Z,99374.13
2022-09-13T03:49:38.562Z,99388.75
2022-09-13T03:52:26.941Z,99381.84
2022-09-13T03:55:15.488Z,99385.66
2022-09-13T03:58:03.846Z,99382.94
2022-09-13T04:00:54.818Z,99388.25
2022-09-13T04:03:43.265Z,99390.41
2022-09-13T04:06:31.683Z,99387.50
2022-09-13T04:09:20.024Z,99385.94
2022-09-13T04:12:09.955Z,99386.91
2022-09-13T04:14:58.335Z,99386.16
2022-09-13T04:17:48.197Z,99396.06
2022-09-13T04:20:36.822Z,99412.09
2022-09-13T04:23:25.183Z,99402.63
2022-09-13T04:26:13.489Z,99395.47
2022-09-13T04:29:01.791Z,99387.66
2022-09-13T04:31:50.920Z,99380.91
2022-09-13T04:34:41.166Z,99382.78
2022-09-13T04:37:29.699Z,99388.00
2022-09-13T04:40:18.406Z,99393.19
2022-09-13T04:43:06.899Z,99401.72
2022-09-13T04:45:55.318Z,99386.31
2022-09-13T04:48:43.835Z,99393.69
2022-09-13T04:51:33.574Z,99396.06
2022-09-13T04:54:22.065Z,99387.31
2022-09-13T04:57:10.686Z,99393.34
2022-09-13T04:59:59.083Z,99385.66
2022-09-13T05:02:47.408Z,99385.06
2022-09-13T05:05:35.725Z,99404.41
2022-09-13T05:08:25.403Z,99414.19
2022-09-13T05:11:13.730Z,99417.00
2022-09-13T05:14:02.679Z,99423.13
2022-09-13T05:16:51.034Z,99408.91
2022-09-13T05:19:39.384Z,99418.25
2022-09-13T05:22:27.725Z,99418.38
2022-09-13T05:25:17.651Z,99433.13
2022-09-13T05:28:06.034Z,99426.19
2022-09-13T05:30:58.735Z,99424.81
2022-09-13T05:33:47.932Z,99432.38
2022-09-13T05:36:36.291Z,99439.97
2022-09-13T05:39:44.020Z,99445.66
2022-09-13T05:42:34.600Z,99452.31
2022-09-13T05:45:23.012Z,99445.97
2022-09-13T05:48:11.809Z,99448.13
2022-09-13T05:51:06.947Z,99443.94
2022-09-13T05:53:55.948Z,99419.75
2022-09-13T05:56:44.247Z,99416.44
2022-09-13T05:59:33.938Z,99430.28
2022-09-13T06:02:22.929Z,99437.84
2022-09-13T06:05:11.946Z,99443.66
2022-09-13T06:08:00.410Z,99442.16
2022-09-13T06:10:56.202Z,99434.56
2022-09-13T06:13:44.590Z,99422.53
2022-09-13T06:16:34.332Z,99417.59
2022-09-13T06:19:23.017Z,99421.06
2022-09-13T06:22:11.354Z,99425.34
2022-09-13T06:24:59.837Z,99420.41
2022-09-13T06:27:50.048Z,99426.09
2022-09-13T06:30:38.629Z,99416.19
2022-09-13T06:33:28.451Z,99410.72
2022-09-13T06:36:19.211Z,99415.34
2022-09-13T06:39:07.858Z,99418.00
2022-09-13T06:41:56.295Z,99429.28
2022-09-13T06:44:55.704Z,99424.78
2022-09-13T06:47:44.046Z,99413.63
2022-09-13T06:50:33.701Z,99408.16
2022-09-13T06:53:22.112Z,99419.66
2022-09-13T06:56:12.938Z,99416.47
2022-09-13T06:59:02.854Z,99420.34
2022-09-13T07:01:51.198Z,99437.31
2022-09-13T07:04:39.780Z,99437.53
2022-09-13T07:07:29.473Z,99438.47
2022-09-13T07:10:18.154Z,99429.78
2022-09-13T07:13:06.464Z,99435.13
2022-09-13T07:15:54.819Z,99443.88
2022-09-13T07:18:43.334Z,99440.53
2022-09-13T07:21:31.762Z,99438.38
2022-09-13T07:24:21.747Z,99442.13
2022-09-13T07:27:10.067Z,99444.13
2022-09-13T07:29:58.445Z,99449.69
2022-09-13T07:32:46.779Z,99450.13
2022-09-13T07:35:35.088Z,99454.66
2022-09-13T07:38:23.428Z,99456.81
2022-09-13T07:41:14.291Z,99459.66
2022-09-13T07:44:04.553Z,99451.81
2022-09-13T07:46:52.881Z,99456.44
2022-09-13T07:49:41.257Z,99450.13
2022-09-13T07:52:30.219Z,99440.59
2022-09-13T07:55:18.561Z,99424.88
2022-09-13T07:58:08.382Z,99436.19
2022-09-13T08:00:58.025Z,99415.78
2022-09-13T08:03:46.955Z,99409.50
2022-09-13T08:06:36.228Z,99401.59
2022-09-13T08:09:24.721Z,99394.75
2022-09-13T08:12:13.095Z,99397.78
2022-09-13T08:15:02.873Z,99418.69
2022-09-13T08:18:04.049Z,99438.78
2022-09-13T08:21:08.635Z,99432.34
2022-09-13T08:24:12.386Z,99427.53
2022-09-13T08:27:03.417Z,99413.13
2022-09-13T08:29:51.826Z,99396.22
2022-09-13T08:32:41.660Z,99395.53
2022-09-13T08:35:30.105Z,99381.66
2022-09-13T08:38:18.544Z,99372.91
2022-09-13T08:41:23.151Z,99361.09
2022-09-13T08:44:14.517Z,99359.59
2022-09-13T08:47:16.468Z,99373.50
2022-09-13T08:50:14.367Z,99380.41
2022-09-13T08:53:13.863Z,99392.41
2022-09-13T08:56:06.369Z,99389.50
2022-09-13T08:59:39.477Z,99394.19
2022-09-13T09:02:51.015Z,99408.38
2022-09-13T09:05:47.900Z,99417.63
2022-09-13T09:08:40.797Z,99409.47
2022-09-13T09:11:33.319Z,99404.94
2022-09-13T09:14:26.838Z,99422.03
2022-09-13T09:17:18.992Z,99414.84
2022-09-13T09:20:17.464Z,99411.88
2022-09-13T09:23:16.758Z,99409.47
2022-09-13T09:26:17.904Z,99406.38
2022-09-13T09:29:20.748Z,99400.50
2022-09-13T09:32:24.211Z,99399.81
2022-09-13T09:35:18.714Z,99385.28
2022-09-13T09:38:44.686Z,99397.00
2022-09-13T09:41:35.057Z,99399.63
2022-09-13T09:44:24.485Z,99402.84
2022-09-13T09:47:15.819Z,99403.22
2022-09-13T09:50:12.259Z,99408.78
2022-09-13T09:53:04.443Z,99415.88
2022-09-13T09:55:57.202Z,99418.75
2022-09-13T09:58:46.715Z,99424.78
2022-09-13T10:01:36.414Z,99417.41
2022-09-13T10:04:25.124Z,99415.88
2022-09-13T10:07:26.233Z,99410.81
2022-09-13T10:10:23.041Z,99408.28
2022-09-13T10:13:17.405Z,99404.94
2022-09-13T10:16:07.558Z,99396.28
2022-09-13T10:18:56.182Z,99396.63
2022-09-13T10:21:44.818Z,99387.78
2022-09-13T10:24:33.433Z,99384.97
2022-09-13T10:27:36.060Z,99387.69
2022-09-13T10:30:33.653Z,99392.00
2022-09-13T10:33:29.891Z,99394.34
2022-09-13T10:36:35.292Z,99404.88
2022-09-13T10:39:30.583Z,99415.66
2022-09-13T10:42:21.822Z,99413.34
2022-09-13T10:45:20.348Z,99413.03
2022-09-13T10:48:13.651Z,99425.41
2022-09-13T10:51:05.437Z,99430.16
2022-09-13T10:54:08.025Z,99429.16
2022-09-13T10:56:56.388Z,99435.28
2022-09-13T10:59:45.035Z,99421.50
2022-09-13T11:03:07.449Z,99418.06
2022-09-13T11:06:00.349Z,99411.47
2022-09-13T11:08:54.444Z,99412.94
2022-09-13T11:11:46.943Z,99426.94
2022-09-13T11:14:59.591Z,99424.84
2022-09-13T11:18:19.570Z,99418.09
2022-09-13T11:21:19.310Z,99410.06
2022-09-13T11:24:42.422Z,99400.00
2022-09-13T11:27:35.986Z,99400.69
2022-09-13T11:30:29.833Z,99395.56
2022-09-13T11:33:31.903Z,99396.06
2022-09-13T11:36:50.346Z,99395.88
2022-09-13T11:39:40.390Z,99392.91
2022-09-13T11:42:40.408Z,99392.09
2022-09-13T11:45:29.379Z,99386.81
2022-09-13T11:48:44.305Z,99391.72
2022-09-13T11:51:42.913Z,99386.09
2022-09-13T11:54:48.256Z,99376.53
2022-09-13T11:57:39.314Z,99369.56
2022-09-13T12:00:30.896Z,99366.03
2022-09-13T12:03:24.381Z,99358.66
2022-09-13T12:06:15.029Z,99340.97
2022-09-13T12:09:07.159Z,99339.28
2022-09-13T12:11:59.367Z,99343.34
2022-09-13T12:14:51.582Z,99341.06
2022-09-13T12:17:42.204Z,99338.06
2022-09-13T12:20:33.872Z,99342.81
2022-09-13T12:23:26.485Z,99334.19
2022-09-13T12:26:20.278Z,99333.13
2022-09-13T12:29:14.929Z,99326.22
2022-09-13T12:32:05.252Z,99321.13
2022-09-13T12:34:57.590Z,99317.28
2022-09-13T12:37:59.384Z,99311.00
2022-09-13T12:41:24.099Z,99300.13
2022-09-13T12:44:35.974Z,99296.69
2022-09-13T12:47:56.818Z,99287.66
2022-09-13T12:50:59.356Z,99283.75
2022-09-13T12:54:18.839Z,99287.41
2022-09-13T12:57:22.233Z,99284.16
2022-09-13T13:00:20.991Z,99287.84
2022-09-13T13:03:15.492Z,99288.88
2022-09-13T13:06:10.783Z,99285.16
2022-09-13T13:09:02.292Z,99285.69
2022-09-13T13:11:51.564Z,99275.88
2022-09-13T13:14:54.136Z,99276.75
2022-09-13T13:17:47.236Z,99278.81
2022-09-13T13:21:22.814Z,99289.25
2022-09-13T13:24:40.388Z,99289.75
2022-09-13T13:27:44.925Z,99285.22
2022-09-13T13:30:52.326Z,99279.13
2022-09-13T13:33:52.154Z,99270.88
2022-09-13T13:36:47.793Z,99274.31
2022-09-13T13:39:39.071Z,99266.16
2022-09-13T13:42:28.322Z,99265.41
2022-09-13T13:45:24.003Z,99265.34
2022-09-13T13:48:16.011Z,99258.44
2022-09-13T13:51:25.650Z,99244.78
2022-09-13T13:54:30.715Z,99246.91
2022-09-13T13:57:24.586Z,99251.50
2022-09-13T14:00:15.616Z,99245.88
2022-09-13T14:03:13.181Z,99253.81
2022-09-13T14:06:07.638Z,99245.06
2022-09-13T14:09:09.567Z,99245.88
2022-09-13T14:12:11.500Z,99234.78
2022-09-13T14:15:20.197Z,99233.88
2022-09-13T14:18:56.283Z,99230.69
2022-09-13T14:21:44.953Z,99220.28
2022-09-13T14:24:38.866Z,99212.66
2022-09-13T14:27:28.432Z,99211.63
2022-09-13T14:30:20.723Z,99210.63
2022-09-13T14:33:09.105Z,99210.47
2022-09-13T14:36:03.186Z,99202.91
2022-09-13T14:38:55.343Z,99208.19
2022-09-13T14:41:45.345Z,99203.22
2022-09-13T14:44:33.770Z,99207.25
2022-09-13T14:47:28.159Z,99207.09
2022-09-13T14:50:19.484Z,99203.34
2022-09-13T14:53:09.078Z,99186.78
2022-09-13T14:55:59.424Z,99193.00
2022-09-13T14:58:50.207Z,99191.94
2022-09-13T15:01:38.518Z,99191.50
2022-09-13T15:04:28.144Z,99180.97
2022-09-13T15:07:23.669Z,99171.09
2022-09-13T15:10:23.924Z,99161.78
2022-09-13T15:13:12.220Z,99158.66
2022-09-13T15:16:03.534Z,99153.75
2022-09-13T15:19:11.932Z,99156.06
2022-09-13T15:22:17.029Z,99155.09
2022-09-13T15:25:06.692Z,99146.91
2022-09-13T15:27:55.227Z,99152.31
2022-09-13T15:30:43.584Z,99147.22
2022-09-13T15:33:33.998Z,99150.03
2022-09-13T15:36:29.888Z,99141.94
2022-09-13T15:39:20.824Z,99140.31
2022-09-13T15:42:09.151Z,99143.31
2022-09-13T15:44:58.061Z,99140.00
2022-09-13T15:47:47.988Z,99137.22
2022-09-13T15:50:38.575Z,99132.09
2022-09-13T15:53:26.886Z,99124.19
2022-09-13T15:56:19.944Z,99105.06
2022-09-13T15:59:08.371Z,99114.31
2022-09-13T16:01:56.843Z,99121.41
2022-09-13T16:04:45.201Z,99122.41
2022-09-13T16:07:34.828Z,99110.69
2022-09-13T16:10:23.954Z,99111.88
2022-09-13T16:13:13.676Z,99105.09
2022-09-13T16:16:02.488Z,99113.00
2022-09-13T16:18:50.903Z,99112.03
2022-09-13T16:21:39.229Z,99098.84
2022-09-13T16:24:27.725Z,99109.75
2022-09-13T16:27:17.452Z,99111.75
2022-09-13T16:30:09.868Z,99119.22
2022-09-13T16:32:58.335Z,99118.41
2022-09-13T16:35:46.950Z,99123.53
2022-09-13T16:38:35.285Z,99111.19
2022-09-13T16:41:23.635Z,99120.25
2022-09-13T16:44:11.958Z,99122.22
2022-09-13T16:47:01.827Z,99130.94
2022-09-13T16:49:50.309Z,99135.34
2022-09-13T16:52:38.695Z,99128.31
2022-09-13T16:55:27.866Z,99128.63
2022-09-13T16:58:16.212Z,99127.34
2022-09-13T17:01:05.671Z,99125.34
2022-09-13T17:03:55.520Z,99117.31
2022-09-13T17:06:43.832Z,99120.75
2022-09-13T17:09:32.196Z,99121.59
2022-09-13T17:12:20.539Z,99121.06
2022-09-13T17:15:09.652Z,99119.13
2022-09-13T17:17:58.006Z,99119.44
2022-09-13T17:20:48.696Z,99123.00
2022-09-13T17:23:37.170Z,99122.19
2022-09-13T17:26:25.525Z,99117.25
2022-09-13T17:29:14.460Z,99125.41
2022-09-13T17:32:04.322Z,99128.19
2022-09-13T17:34:52.687Z,99129.00
2022-09-13T17:37:42.336Z,99135.06
2022-09-13T17:40:31.126Z,99137.19
2022-09-13T17:43:19.551Z,99139.16
2022-09-13T17:46:09.112Z,99128.78
2022-09-13T17:48:59.367Z,99132.53
2022-09-13T17:51:47.709Z,99131.72
2022-09-13T17:54:37.450Z,99137.28
2022-09-13T17:57:25.937Z,99140.09
2022-09-13T18:00:15.296Z,99131.69
2022-09-13T18:03:03.659Z,99121.63
2022-09-13T18:05:56.955Z,99113.25
2022-09-13T18:08:45.254Z,99112.56
2022-09-13T18:11:34.959Z,99104.03
2022-09-13T18:14:24.266Z,99103.38
2022-09-13T18:17:13.786Z,99095.66
2022-09-13T18:20:02.254Z,99099.09
2022-09-13T18:22:50.613Z,99100.75
2022-09-13T18:25:38.960Z,99103.88
2022-09-13T18:28:28.875Z,99100.28
2022-09-13T18:31:18.686Z,99098.47
2022-09-13T18:34:08.661Z,99104.03
2022-09-13T18:36:57.015Z,99109.44
2022-09-13T18:39:45.462Z,99116.19
2022-09-13T18:42:33.862Z,99132.63
2022-09-13T18:45:23.539Z,99135.25
2022-09-13T18:48:11.845Z,99145.78
2022-09-13T18:51:00.551Z,99140.81
2022-09-13T18:53:49.094Z,99140.47
2022-09-13T18:56:37.506Z,99140.75
2022-09-13T18:59:25.831Z,99141.78
2022-09-13T19:02:15.636Z,99133.63
2022-09-13T19:05:07.038Z,99130.44
2022-09-13T19:07:56.187Z,99120.69
2022-09-13T19:10:44.506Z,99122.63
2022-09-13T19:13:33.020Z,99119.34
2022-09-13T19:16:21.964Z,99120.34
2022-09-13T19:19:11.968Z,99115.41
2022-09-13T19:22:00.331Z,99117.72
2022-09-13T19:24:51.698Z,99107.88
2022-09-13T19:27:40.094Z,99108.56
2022-09-13T19:30:28.424Z,99105.75
2022-09-13T19:33:16.771Z,99111.53
2022-09-13T19:36:09.127Z,99105.31
2022-09-13T19:38:59.231Z,99118.47
2022-09-13T19:41:47.588Z,99120.63
2022-09-13T19:44:35.925Z,99111.28
2022-09-13T19:50:32.806Z,99115.34
2022-09-13T19:53:35.478Z,99115.69
2022-09-13T19:56:32.562Z,99116.34
2022-09-13T19:59:21.700Z,99112.72
2022-09-13T20:02:11.002Z,99110.28
2022-09-13T20:04:59.401Z,99108.94
2022-09-13T20:07:47.765Z,99112.31
2022-09-13T20:10:38.416Z,99116.38
2022-09-13T20:13:26.861Z,99118.47
2022-09-13T20:16:18.067Z,99112.72
2022-09-13T20:19:23.594Z,99117.97
2022-09-13T20:22:15.420Z,99127.94
2022-09-13T20:25:04.579Z,99131.84
2022-09-13T20:27:54.460Z,99131.66
2022-09-13T20:30:43.205Z,99131.75
2022-09-13T20:33:31.813Z,99124.47
2022-09-13T20:36:20.140Z,99123.00
2022-09-13T20:39:08.529Z,99122.47
2022-09-13T20:41:56.866Z,99119.00
2022-09-13T20:44:46.747Z,99112.81
2022-09-13T20:47:36.142Z,99103.41
2022-09-13T20:50:24.495Z,99106.34
2022-09-13T20:53:12.885Z,99109.13
2022-09-13T20:56:04.330Z,99112.88
2022-09-13T20:58:57.266Z,99109.56
2022-09-13T21:01:47.344Z,99094.81
2022-09-13T21:04:35.928Z,99086.97
2022-09-13T21:07:41.783Z,99089.59
2022-09-13T21:10:32.100Z,99088.91
2022-09-13T21:13:20.470Z,99089.22
2022-09-13T21:16:10.635Z,99091.00
2022-09-13T21:19:00.702Z,99083.97
2022-09-13T21:21:49.320Z,99085.59
2022-09-13T21:24:38.362Z,99077.41
2022-09-13T21:27:26.729Z,99072.19
2022-09-13T21:30:15.764Z,99073.84
2022-09-13T21:33:04.103Z,99081.03
2022-09-13T21:35:57.455Z,99077.06
2022-09-13T21:38:45.939Z,99075.56
2022-09-13T21:41:34.464Z,99069.78
2022-09-13T21:44:22.882Z,99067.50
2022-09-13T21:47:11.361Z,99060.03
2022-09-13T21:49:59.662Z,99059.50
2022-09-13T21:52:49.353Z,99061.47
2022-09-13T21:55:39.814Z,99060.78
2022-09-13T21:58:28.180Z,99060.09
2022-09-13T22:01:18.940Z,99054.50
2022-09-13T22:04:07.937Z,99034.78
2022-09-13T22:06:56.563Z,99025.31
2022-09-13T22:09:46.274Z,99017.13
2022-09-13T22:12:34.658Z,99014.22
2022-09-13T22:15:22.961Z,99019.69
2022-09-13T22:18:11.398Z,99024.28
2022-09-13T22:21:05.785Z,99011.59
2022-09-13T22:23:54.316Z,99018.00
2022-09-13T22:26:44.458Z,99014.13
2022-09-13T22:29:32.825Z,99004.16
2022-09-13T22:32:23.546Z,98994.47
2022-09-13T22:35:12.847Z,98992.53
2022-09-13T22:38:01.174Z,98987.28
2022-09-13T22:40:56.510Z,98990.84
2022-09-13T22:43:46.369Z,98992.81
2022-09-13T22:46:36.526Z,98977.06
2022-09-13T22:49:24.893Z,98970.88
2022-09-13T22:52:13.225Z,98973.50
2022-09-13T22:55:01.600Z,98976.13
2022-09-13T22:57:53.122Z,98966.28
2022-09-13T23:00:43.301Z,98960.72
2022-09-13T23:03:31.879Z,98961.41
2022-09-13T23:06:22.774Z,98960.25
2022-09-13T23:09:12.447Z,98949.63
2022-09-13T23:12:00.849Z,98956.50
2022-09-13T23:14:49.215Z,98962.59
2022-09-13T23:17:39.056Z,98969.78
2022-09-13T23:20:27.559Z,98969.41
2022-09-13T23:23:15.942Z,98968.56
2022-09-13T23:26:05.870Z,98972.03
2022-09-13T23:28:56.767Z,98969.56
2022-09-13T23:31:46.775Z,98970.56
2022-09-13T23:34:36.552Z,98961.44
2022-09-13T23:37:24.908Z,98949.16
2022-09-13T23:40:13.301Z,98954.53
2022-09-13T23:43:01.668Z,98964.66
2022-09-13T23:45:50.115Z,98970.94
2022-09-13T23:48:38.539Z,98977.03
2022-09-13T23:51:28.368Z,98986.44
2022-09-13T23:54:16.919Z,98998.75
2022-09-13T23:57:06.064Z,98995.19
2022-09-13T23:59:54.434Z,99008.28
